Lady Lake, Florida
Current Conditions -  °F | °C
As of 10:53 AM on Wednesday 22 Oct 2014 (Local Time) from KLEE Reporting Station
Clear Clear  
Wind Chill: 77°   Ceiling: Unl
Heat Index: 79°   Visibility: 10mi
Dew Point: 57°   Wind: 7mph
Humidity: 50%   Direction: 10°N
Pressure: 30.02"   Gusts: NA
Location:  28.92°N, 81.92°W
Report Text: KLEE 221453Z 01006KT 10SM CLR 25/14 A3002 RMK AO2 SLP166 T02500139 51010
Loading
Personal Weather Stations






























Interactive Weather Map
Tropical Storm Tracking
New forecast layout! Learn more

10-Day Weather Forecast

Advertisements
Track Severe Weather on mobile